sensor_id;sensor_type;location;lat;lon;timestamp;pressure;altitude;pressure_sealevel;temperature;humidity
9129;BME280;4599;50.906;6.786;2023-04-24T00:01:04;17230.84;;;-142.83;68.72
9129;BME280;4599;50.906;6.786;2023-04-24T00:05:08;17218.56;;;-142.83;69.68
9129;BME280;4599;50.906;6.786;2023-04-24T00:09:10;17226.75;;;-142.83;70.23
9129;BME280;4599;50.906;6.786;2023-04-24T00:13:11;17210.38;;;-142.83;71.64
9129;BME280;4599;50.906;6.786;2023-04-24T00:17:13;17236.97;;;-142.83;70.92
9129;BME280;4599;50.906;6.786;2023-04-24T00:21:16;17271.75;;;-142.83;70.27
9129;BME280;4599;50.906;6.786;2023-04-24T00:25:17;17286.06;;;-142.83;70.44
9129;BME280;4599;50.906;6.786;2023-04-24T00:29:19;17232.88;;;-142.83;69.99
9129;BME280;4599;50.906;6.786;2023-04-24T00:33:20;17267.66;;;-142.83;70.54
9129;BME280;4599;50.906;6.786;2023-04-24T00:37:23;17249.25;;;-142.83;70.37
9129;BME280;4599;50.906;6.786;2023-04-24T00:41:25;17269.69;;;-142.83;70.45
9129;BME280;4599;50.906;6.786;2023-04-24T00:45:27;17196.06;;;-142.83;71.30
9129;BME280;4599;50.906;6.786;2023-04-24T00:49:28;17202.22;;;-142.83;71.75
9129;BME280;4599;50.906;6.786;2023-04-24T00:53:31;17191.97;;;-142.83;71.67
9129;BME280;4599;50.906;6.786;2023-04-24T00:57:33;17228.78;;;-142.83;70.81
9129;BME280;4599;50.906;6.786;2023-04-24T01:01:35;17224.72;;;-142.83;68.00
9129;BME280;4599;50.906;6.786;2023-04-24T01:05:37;17224.72;;;-142.83;70.62
9129;BME280;4599;50.906;6.786;2023-04-24T01:09:40;17212.44;;;-142.83;68.24
9129;BME280;4599;50.906;6.786;2023-04-24T01:13:42;17220.63;;;-142.83;70.29
9129;BME280;4599;50.906;6.786;2023-04-24T01:17:44;17218.56;;;-142.83;66.74
9129;BME280;4599;50.906;6.786;2023-04-24T01:21:47;17249.25;;;-142.83;63.48
9129;BME280;4599;50.906;6.786;2023-04-24T01:25:53;17230.84;;;-142.83;64.20
9129;BME280;4599;50.906;6.786;2023-04-24T01:29:55;17220.63;;;-142.83;65.37
9129;BME280;4599;50.906;6.786;2023-04-24T01:33:56;17214.47;;;-142.83;65.15
9129;BME280;4599;50.906;6.786;2023-04-24T01:37:58;17183.81;;;-142.83;64.96
9129;BME280;4599;50.906;6.786;2023-04-24T01:42:01;17194.03;;;-142.83;66.08
9129;BME280;4599;50.906;6.786;2023-04-24T01:46:03;17169.47;;;-142.83;67.64
9129;BME280;4599;50.906;6.786;2023-04-24T01:50:06;17153.13;;;-142.83;68.26
9129;BME280;4599;50.906;6.786;2023-04-24T01:54:07;17183.81;;;-142.83;67.99
9129;BME280;4599;50.906;6.786;2023-04-24T01:58:10;17122.44;;;-142.83;68.95
9129;BME280;4599;50.906;6.786;2023-04-24T02:02:12;17138.81;;;-142.83;70.42
9129;BME280;4599;50.906;6.786;2023-04-24T02:06:14;17138.81;;;-142.83;69.10
9129;BME280;4599;50.906;6.786;2023-04-24T02:10:15;17138.81;;;-142.83;68.67
9129;BME280;4599;50.906;6.786;2023-04-24T02:14:18;17097.91;;;-142.83;69.87
9129;BME280;4599;50.906;6.786;2023-04-24T02:18:19;17106.06;;;-142.83;69.67
9129;BME280;4599;50.906;6.786;2023-04-24T02:22:21;17124.47;;;-142.83;69.70
9129;BME280;4599;50.906;6.786;2023-04-24T02:26:22;17124.47;;;-142.83;68.21
9129;BME280;4599;50.906;6.786;2023-04-24T02:30:25;17142.91;;;-142.83;68.65
9129;BME280;4599;50.906;6.786;2023-04-24T02:34:27;17163.34;;;-142.83;70.77
9129;BME280;4599;50.906;6.786;2023-04-24T02:38:28;17151.06;;;-142.83;68.43
9129;BME280;4599;50.906;6.786;2023-04-24T02:42:30;17159.25;;;-142.83;68.90
9129;BME280;4599;50.906;6.786;2023-04-24T02:46:33;17149.03;;;-142.83;68.77
9129;BME280;4599;50.906;6.786;2023-04-24T02:50:34;17183.81;;;-142.83;67.84
9129;BME280;4599;50.906;6.786;2023-04-24T02:54:36;17142.91;;;-142.83;68.24
9129;BME280;4599;50.906;6.786;2023-04-24T02:58:38;17165.38;;;-142.83;68.62
9129;BME280;4599;50.906;6.786;2023-04-24T03:02:40;17173.56;;;-142.83;67.87
9129;BME280;4599;50.906;6.786;2023-04-24T03:06:42;17144.94;;;-142.83;69.75
9129;BME280;4599;50.906;6.786;2023-04-24T03:10:44;17159.25;;;-142.83;69.29
9129;BME280;4599;50.906;6.786;2023-04-24T03:14:48;17183.81;;;-142.83;67.55
9129;BME280;4599;50.906;6.786;2023-04-24T03:18:51;17169.47;;;-142.83;68.20
9129;BME280;4599;50.906;6.786;2023-04-24T03:22:53;17159.25;;;-142.83;68.44
9129;BME280;4599;50.906;6.786;2023-04-24T03:26:55;17134.72;;;-142.83;70.82
9129;BME280;4599;50.906;6.786;2023-04-24T03:30:56;17138.81;;;-142.83;68.85
9129;BME280;4599;50.906;6.786;2023-04-24T03:34:59;17126.53;;;-142.83;69.47
9129;BME280;4599;50.906;6.786;2023-04-24T03:39:01;17155.16;;;-142.83;68.62
9129;BME280;4599;50.906;6.786;2023-04-24T03:43:02;17144.94;;;-142.83;69.23
9129;BME280;4599;50.906;6.786;2023-04-24T03:47:04;17153.13;;;-142.83;68.35
9129;BME280;4599;50.906;6.786;2023-04-24T03:51:06;17144.94;;;-142.83;69.19
9129;BME280;4599;50.906;6.786;2023-04-24T03:55:08;17157.22;;;-142.83;69.39
9129;BME280;4599;50.906;6.786;2023-04-24T03:59:10;17124.47;;;-142.83;69.06
9129;BME280;4599;50.906;6.786;2023-04-24T04:03:12;17130.63;;;-142.83;69.63
9129;BME280;4599;50.906;6.786;2023-04-24T04:07:15;17155.16;;;-142.83;69.35
9129;BME280;4599;50.906;6.786;2023-04-24T04:11:17;17136.75;;;-142.83;69.59
9129;BME280;4599;50.906;6.786;2023-04-24T04:15:18;17128.56;;;-142.83;70.69
9129;BME280;4599;50.906;6.786;2023-04-24T04:19:22;17122.44;;;-142.83;70.14
9129;BME280;4599;50.906;6.786;2023-04-24T04:23:25;17130.63;;;-142.83;70.55
9129;BME280;4599;50.906;6.786;2023-04-24T04:27:26;17122.44;;;-142.83;70.23
9129;BME280;4599;50.906;6.786;2023-04-24T04:31:28;17134.72;;;-142.83;69.26
9129;BME280;4599;50.906;6.786;2023-04-24T04:35:30;17144.94;;;-142.83;69.40
9129;BME280;4599;50.906;6.786;2023-04-24T04:39:33;17151.06;;;-142.83;69.16
9129;BME280;4599;50.906;6.786;2023-04-24T04:43:34;17171.53;;;-142.83;69.04
9129;BME280;4599;50.906;6.786;2023-04-24T04:47:36;17179.72;;;-142.83;68.81
9129;BME280;4599;50.906;6.786;2023-04-24T04:51:37;17167.44;;;-142.83;70.74
9129;BME280;4599;50.906;6.786;2023-04-24T04:55:42;17155.16;;;-142.83;69.09
9129;BME280;4599;50.906;6.786;2023-04-24T04:59:43;17151.06;;;-142.83;67.86
9129;BME280;4599;50.906;6.786;2023-04-24T05:03:45;17185.84;;;-142.83;67.66
9129;BME280;4599;50.906;6.786;2023-04-24T05:07:47;17181.75;;;-142.83;67.08
9129;BME280;4599;50.906;6.786;2023-04-24T05:11:49;17167.44;;;-142.83;67.95
9129;BME280;4599;50.906;6.786;2023-04-24T05:15:51;17149.03;;;-142.83;68.37
9129;BME280;4599;50.906;6.786;2023-04-24T05:19:53;17187.88;;;-142.83;68.14
9129;BME280;4599;50.906;6.786;2023-04-24T05:23:54;17187.88;;;-142.83;68.19
9129;BME280;4599;50.906;6.786;2023-04-24T05:27:57;17151.06;;;-142.83;69.16
9129;BME280;4599;50.906;6.786;2023-04-24T05:31:59;17146.97;;;-142.83;69.44
9129;BME280;4599;50.906;6.786;2023-04-24T05:36:01;17171.53;;;-142.83;67.98
9129;BME280;4599;50.906;6.786;2023-04-24T05:40:03;17151.06;;;-142.83;71.12
9129;BME280;4599;50.906;6.786;2023-04-24T05:44:06;17189.94;;;-142.83;68.43
9129;BME280;4599;50.906;6.786;2023-04-24T05:48:07;17142.91;;;-142.83;68.62
9129;BME280;4599;50.906;6.786;2023-04-24T05:52:09;17175.63;;;-142.83;69.00
9129;BME280;4599;50.906;6.786;2023-04-24T05:56:11;17189.94;;;-142.83;68.47
9129;BME280;4599;50.906;6.786;2023-04-24T06:00:14;17177.66;;;-142.83;67.67
9129;BME280;4599;50.906;6.786;2023-04-24T06:04:16;17153.13;;;-142.83;69.90
9129;BME280;4599;50.906;6.786;2023-04-24T06:08:18;17155.16;;;-142.83;69.66
9129;BME280;4599;50.906;6.786;2023-04-24T06:12:19;17159.25;;;-142.83;70.29
9129;BME280;4599;50.906;6.786;2023-04-24T06:16:22;17138.81;;;-142.83;71.18
9129;BME280;4599;50.906;6.786;2023-04-24T06:20:24;17157.22;;;-142.83;70.29
9129;BME280;4599;50.906;6.786;2023-04-24T06:24:27;17118.34;;;-142.83;70.68
9129;BME280;4599;50.906;6.786;2023-04-24T06:28:28;17138.81;;;-142.83;72.50
9129;BME280;4599;50.906;6.786;2023-04-24T06:32:31;17136.75;;;-142.83;74.57
9129;BME280;4599;50.906;6.786;2023-04-24T06:36:32;17130.63;;;-142.83;74.24
9129;BME280;4599;50.906;6.786;2023-04-24T06:40:34;17108.13;;;-142.83;77.63
9129;BME280;4599;50.906;6.786;2023-04-24T06:44:35;17089.72;;;-142.83;78.12
9129;BME280;4599;50.906;6.786;2023-04-24T06:48:38;17122.44;;;-142.83;78.86
9129;BME280;4599;50.906;6.786;2023-04-24T06:52:40;17104.03;;;-142.83;78.52
9129;BME280;4599;50.906;6.786;2023-04-24T06:56:42;17077.44;;;-142.83;78.72
9129;BME280;4599;50.906;6.786;2023-04-24T07:00:43;17052.91;;;-142.83;79.64
9129;BME280;4599;50.906;6.786;2023-04-24T07:04:46;17085.63;;;-142.83;79.76
9129;BME280;4599;50.906;6.786;2023-04-24T07:08:47;17057.00;;;-142.83;80.98
9129;BME280;4599;50.906;6.786;2023-04-24T07:12:49;17057.00;;;-142.83;80.17
9129;BME280;4599;50.906;6.786;2023-04-24T07:16:50;17067.22;;;-142.83;82.34
9129;BME280;4599;50.906;6.786;2023-04-24T07:20:53;17048.81;;;-142.83;82.46
9129;BME280;4599;50.906;6.786;2023-04-24T07:24:54;17032.44;;;-142.83;82.46
9129;BME280;4599;50.906;6.786;2023-04-24T07:28:56;17052.91;;;-142.83;82.72
9129;BME280;4599;50.906;6.786;2023-04-24T07:32:57;17024.25;;;-142.83;83.15
9129;BME280;4599;50.906;6.786;2023-04-24T07:37:01;17026.31;;;-142.83;81.50
9129;BME280;4599;50.906;6.786;2023-04-24T07:41:03;17007.91;;;-142.83;82.41
9129;BME280;4599;50.906;6.786;2023-04-24T07:45:05;17046.75;;;-142.83;82.23
9129;BME280;4599;50.906;6.786;2023-04-24T07:49:07;16997.69;;;-142.83;82.71
9129;BME280;4599;50.906;6.786;2023-04-24T07:53:16;16995.63;;;-142.83;82.77
9129;BME280;4599;50.906;6.786;2023-04-24T07:57:17;16979.28;;;-142.83;83.22
9129;BME280;4599;50.906;6.786;2023-04-24T08:01:19;16977.22;;;-142.83;83.87
9129;BME280;4599;50.906;6.786;2023-04-24T08:05:20;16981.31;;;-142.83;85.78
9129;BME280;4599;50.906;6.786;2023-04-24T08:09:23;16995.63;;;-142.83;85.01
9129;BME280;4599;50.906;6.786;2023-04-24T08:13:27;16993.59;;;-142.83;86.08
9129;BME280;4599;50.906;6.786;2023-04-24T08:17:29;16934.28;;;-142.83;85.12
9129;BME280;4599;50.906;6.786;2023-04-24T08:21:32;16946.53;;;-142.83;84.01
9129;BME280;4599;50.906;6.786;2023-04-24T08:25:35;16962.91;;;-142.83;81.63
9129;BME280;4599;50.906;6.786;2023-04-24T08:29:37;16952.69;;;-142.83;82.59
9129;BME280;4599;50.906;6.786;2023-04-24T08:33:38;16977.22;;;-142.83;82.66
9129;BME280;4599;50.906;6.786;2023-04-24T08:37:40;16999.72;;;-142.83;82.89
9129;BME280;4599;50.906;6.786;2023-04-24T08:41:44;16995.63;;;-142.83;83.23
9129;BME280;4599;50.906;6.786;2023-04-24T08:45:45;16934.28;;;-142.83;84.59
9129;BME280;4599;50.906;6.786;2023-04-24T08:49:48;16946.53;;;-142.83;84.43
9129;BME280;4599;50.906;6.786;2023-04-24T08:53:51;16946.53;;;-142.83;84.73
9129;BME280;4599;50.906;6.786;2023-04-24T08:57:56;16936.31;;;-142.83;85.31
9129;BME280;4599;50.906;6.786;2023-04-24T09:01:59;16962.91;;;-142.83;85.18
9129;BME280;4599;50.906;6.786;2023-04-24T09:06:02;16948.59;;;-142.83;86.55
9129;BME280;4599;50.906;6.786;2023-04-24T09:10:04;16967.00;;;-142.83;85.62
9129;BME280;4599;50.906;6.786;2023-04-24T09:14:11;16958.81;;;-142.83;86.35
9129;BME280;4599;50.906;6.786;2023-04-24T09:18:14;17014.03;;;-142.83;86.62
9129;BME280;4599;50.906;6.786;2023-04-24T09:22:15;16942.47;;;-142.83;87.10
9129;BME280;4599;50.906;6.786;2023-04-24T09:26:16;16997.69;;;-142.83;86.58
9129;BME280;4599;50.906;6.786;2023-04-24T09:30:21;17005.84;;;-142.83;86.21
9129;BME280;4599;50.906;6.786;2023-04-24T09:34:25;16995.63;;;-142.83;87.24
9129;BME280;4599;50.906;6.786;2023-04-24T09:38:31;16999.72;;;-142.83;86.34
9129;BME280;4599;50.906;6.786;2023-04-24T09:42:32;17018.13;;;-142.83;86.88
9129;BME280;4599;50.906;6.786;2023-04-24T09:46:35;17022.22;;;-142.83;87.21
9129;BME280;4599;50.906;6.786;2023-04-24T09:50:37;17044.72;;;-142.83;86.46
9129;BME280;4599;50.906;6.786;2023-04-24T09:54:39;17050.84;;;-142.83;86.01
9129;BME280;4599;50.906;6.786;2023-04-24T09:58:40;17057.00;;;-142.83;85.48
9129;BME280;4599;50.906;6.786;2023-04-24T10:02:43;17036.53;;;-142.83;85.76
9129;BME280;4599;50.906;6.786;2023-04-24T10:06:46;17040.63;;;-142.83;85.40
9129;BME280;4599;50.906;6.786;2023-04-24T10:10:48;17071.31;;;-142.83;85.22
9129;BME280;4599;50.906;6.786;2023-04-24T10:14:49;17104.03;;;-142.83;83.68
9129;BME280;4599;50.906;6.786;2023-04-24T10:18:53;17085.63;;;-142.83;83.82
9129;BME280;4599;50.906;6.786;2023-04-24T10:22:57;17059.03;;;-142.83;84.04
9129;BME280;4599;50.906;6.786;2023-04-24T10:26:59;17085.63;;;-142.83;84.59
9129;BME280;4599;50.906;6.786;2023-04-24T10:31:01;17114.25;;;-142.83;84.48
9129;BME280;4599;50.906;6.786;2023-04-24T10:35:06;17155.16;;;-142.83;83.13
9129;BME280;4599;50.906;6.786;2023-04-24T10:39:10;17185.84;;;-142.83;82.69
9129;BME280;4599;50.906;6.786;2023-04-24T10:43:17;17194.03;;;-142.83;83.06
9129;BME280;4599;50.906;6.786;2023-04-24T10:47:18;17228.78;;;-142.83;81.36
9129;BME280;4599;50.906;6.786;2023-04-24T10:51:23;17189.94;;;-142.83;77.04
9129;BME280;4599;50.906;6.786;2023-04-24T10:55:40;17185.84;;;-142.83;78.24
9129;BME280;4599;50.906;6.786;2023-04-24T10:59:42;17171.53;;;-142.83;76.76
9129;BME280;4599;50.906;6.786;2023-04-24T11:03:50;17151.06;;;-142.83;79.68
9129;BME280;4599;50.906;6.786;2023-04-24T11:08:13;17171.53;;;-142.83;83.33
9129;BME280;4599;50.906;6.786;2023-04-24T11:12:15;17140.84;;;-142.83;79.53
9129;BME280;4599;50.906;6.786;2023-04-24T11:16:20;17122.44;;;-142.83;80.81
9129;BME280;4599;50.906;6.786;2023-04-24T11:20:23;17146.97;;;-142.83;79.88
9129;BME280;4599;50.906;6.786;2023-04-24T11:24:38;17065.16;;;-142.83;82.27
9129;BME280;4599;50.906;6.786;2023-04-24T11:28:47;17071.31;;;-142.83;83.54
9129;BME280;4599;50.906;6.786;2023-04-24T11:32:50;17112.22;;;-142.83;83.83
9129;BME280;4599;50.906;6.786;2023-04-24T11:36:53;17114.25;;;-142.83;84.30
9129;BME280;4599;50.906;6.786;2023-04-24T11:40:56;17183.81;;;-142.83;82.51
9129;BME280;4599;50.906;6.786;2023-04-24T11:44:58;17478.34;;;-142.83;77.19
9129;BME280;4599;50.906;6.786;2023-04-24T11:48:59;17554.03;;;-142.83;76.97
9129;BME280;4599;50.906;6.786;2023-04-24T11:53:01;17621.53;;;-142.83;71.01
9129;BME280;4599;50.906;6.786;2023-04-24T11:57:06;17439.47;;;-142.83;67.41
9129;BME280;4599;50.906;6.786;2023-04-24T12:01:08;17425.16;;;-142.83;70.19
9129;BME280;4599;50.906;6.786;2023-04-24T12:05:19;17380.16;;;-142.83;72.35
9129;BME280;4599;50.906;6.786;2023-04-24T12:09:21;17326.97;;;-142.83;72.55
9129;BME280;4599;50.906;6.786;2023-04-24T12:13:25;17281.97;;;-142.83;73.01
9129;BME280;4599;50.906;6.786;2023-04-24T12:17:28;17261.53;;;-142.83;71.78
9129;BME280;4599;50.906;6.786;2023-04-24T12:21:30;17236.97;;;-142.83;72.02
9129;BME280;4599;50.906;6.786;2023-04-24T12:25:32;17265.63;;;-142.83;73.16
9129;BME280;4599;50.906;6.786;2023-04-24T12:29:35;17335.16;;;-142.83;72.83
9129;BME280;4599;50.906;6.786;2023-04-24T12:33:37;17419.03;;;-142.83;71.55
9129;BME280;4599;50.906;6.786;2023-04-24T12:37:42;17439.47;;;-142.83;67.36
9129;BME280;4599;50.906;6.786;2023-04-24T12:41:54;17496.75;;;-142.83;69.02
9129;BME280;4599;50.906;6.786;2023-04-24T12:45:57;17535.59;;;-142.83;63.35
9129;BME280;4599;50.906;6.786;2023-04-24T12:49:59;17480.38;;;-142.83;61.77
9129;BME280;4599;50.906;6.786;2023-04-24T12:54:00;17482.44;;;-142.83;61.61
9129;BME280;4599;50.906;6.786;2023-04-24T12:58:02;17472.19;;;-142.83;62.19
9129;BME280;4599;50.906;6.786;2023-04-24T13:02:04;17588.78;;;-142.83;60.07
9129;BME280;4599;50.906;6.786;2023-04-24T13:06:06;17654.25;;;-142.83;60.08
9129;BME280;4599;50.906;6.786;2023-04-24T13:10:08;17754.50;;;-142.83;58.20
9129;BME280;4599;50.906;6.786;2023-04-24T13:14:10;17515.16;;;-142.83;59.09
9129;BME280;4599;50.906;6.786;2023-04-24T13:18:13;17449.69;;;-142.83;60.20
9129;BME280;4599;50.906;6.786;2023-04-24T13:22:14;17666.53;;;-142.83;59.48
9129;BME280;4599;50.906;6.786;2023-04-24T13:26:15;17568.34;;;-142.83;58.95
9129;BME280;4599;50.906;6.786;2023-04-24T13:30:17;17582.66;;;-142.83;59.34
9129;BME280;4599;50.906;6.786;2023-04-24T13:34:20;17805.63;;;-142.83;57.76
9129;BME280;4599;50.906;6.786;2023-04-24T13:38:21;17654.25;;;-142.83;55.14
9129;BME280;4599;50.906;6.786;2023-04-24T13:42:23;17625.63;;;-142.83;55.77
9129;BME280;4599;50.906;6.786;2023-04-24T13:46:24;17574.47;;;-142.83;56.41
9129;BME280;4599;50.906;6.786;2023-04-24T13:50:28;17793.34;;;-142.83;55.09
9129;BME280;4599;50.906;6.786;2023-04-24T13:54:29;17727.91;;;-142.83;53.03
9129;BME280;4599;50.906;6.786;2023-04-24T13:58:31;17625.63;;;-142.83;50.83
9129;BME280;4599;50.906;6.786;2023-04-24T14:02:32;17570.38;;;-142.83;51.37
9129;BME280;4599;50.906;6.786;2023-04-24T14:06:35;17672.66;;;-142.83;55.24
9129;BME280;4599;50.906;6.786;2023-04-24T14:10:37;17564.25;;;-142.83;55.87
9129;BME280;4599;50.906;6.786;2023-04-24T14:14:38;17537.66;;;-142.83;54.33
9129;BME280;4599;50.906;6.786;2023-04-24T14:18:40;17650.16;;;-142.83;56.23
9129;BME280;4599;50.906;6.786;2023-04-24T14:22:42;17625.63;;;-142.83;53.88
9129;BME280;4599;50.906;6.786;2023-04-24T14:26:44;17635.84;;;-142.83;56.44
9129;BME280;4599;50.906;6.786;2023-04-24T14:30:45;17641.97;;;-142.83;53.69
9129;BME280;4599;50.906;6.786;2023-04-24T14:34:47;17629.72;;;-142.83;53.90
9129;BME280;4599;50.906;6.786;2023-04-24T14:38:50;17586.75;;;-142.83;53.54
9129;BME280;4599;50.906;6.786;2023-04-24T14:42:51;17527.44;;;-142.83;54.74
9129;BME280;4599;50.906;6.786;2023-04-24T14:46:53;17623.56;;;-142.83;54.61
9129;BME280;4599;50.906;6.786;2023-04-24T14:50:55;17539.69;;;-142.83;54.64
9129;BME280;4599;50.906;6.786;2023-04-24T14:54:57;17513.09;;;-142.83;53.19
9129;BME280;4599;50.906;6.786;2023-04-24T14:58:59;17506.97;;;-142.83;54.48
9129;BME280;4599;50.906;6.786;2023-04-24T15:03:01;17498.78;;;-142.83;54.93
9129;BME280;4599;50.906;6.786;2023-04-24T15:07:03;17496.75;;;-142.83;56.17
9129;BME280;4599;50.906;6.786;2023-04-24T15:11:06;17455.84;;;-142.83;54.33
9129;BME280;4599;50.906;6.786;2023-04-24T15:15:08;17537.66;;;-142.83;54.70
9129;BME280;4599;50.906;6.786;2023-04-24T15:19:10;17574.47;;;-142.83;54.65
9129;BME280;4599;50.906;6.786;2023-04-24T15:23:12;17535.59;;;-142.83;53.40
9129;BME280;4599;50.906;6.786;2023-04-24T15:27:14;17535.59;;;-142.83;54.37
9129;BME280;4599;50.906;6.786;2023-04-24T15:31:16;17502.88;;;-142.83;54.20
9129;BME280;4599;50.906;6.786;2023-04-24T15:35:18;17515.16;;;-142.83;54.83
9129;BME280;4599;50.906;6.786;2023-04-24T15:39:22;17490.59;;;-142.83;55.03
9129;BME280;4599;50.906;6.786;2023-04-24T15:43:25;17457.88;;;-142.83;54.27
9129;BME280;4599;50.906;6.786;2023-04-24T15:47:26;17410.84;;;-142.83;54.88
9129;BME280;4599;50.906;6.786;2023-04-24T15:51:28;17380.16;;;-142.83;55.28
9129;BME280;4599;50.906;6.786;2023-04-24T15:55:29;17376.06;;;-142.83;55.69
9129;BME280;4599;50.906;6.786;2023-04-24T15:59:32;17437.44;;;-142.83;56.13
9129;BME280;4599;50.906;6.786;2023-04-24T16:03:33;17388.34;;;-142.83;55.72
9129;BME280;4599;50.906;6.786;2023-04-24T16:07:37;17410.84;;;-142.83;55.64
9129;BME280;4599;50.906;6.786;2023-04-24T16:11:39;17400.59;;;-142.83;55.05
9129;BME280;4599;50.906;6.786;2023-04-24T16:15:42;17410.84;;;-142.83;55.74
9129;BME280;4599;50.906;6.786;2023-04-24T16:19:43;17431.28;;;-142.83;55.00
9129;BME280;4599;50.906;6.786;2023-04-24T16:23:45;17433.34;;;-142.83;55.12
9129;BME280;4599;50.906;6.786;2023-04-24T16:27:46;17447.66;;;-142.83;53.58
9129;BME280;4599;50.906;6.786;2023-04-24T16:31:50;17412.88;;;-142.83;54.04
9129;BME280;4599;50.906;6.786;2023-04-24T16:35:52;17412.88;;;-142.83;54.39
9129;BME280;4599;50.906;6.786;2023-04-24T16:39:53;17400.59;;;-142.83;54.97
9129;BME280;4599;50.906;6.786;2023-04-24T16:43:55;17412.88;;;-142.83;55.31
9129;BME280;4599;50.906;6.786;2023-04-24T16:47:58;17386.28;;;-142.83;56.46
9129;BME280;4599;50.906;6.786;2023-04-24T16:51:59;17416.97;;;-142.83;54.66
9129;BME280;4599;50.906;6.786;2023-04-24T16:56:01;17433.34;;;-142.83;52.91
9129;BME280;4599;50.906;6.786;2023-04-24T17:00:03;17380.16;;;-142.83;53.49
9129;BME280;4599;50.906;6.786;2023-04-24T17:04:06;17421.06;;;-142.83;54.08
9129;BME280;4599;50.906;6.786;2023-04-24T17:08:07;17386.28;;;-142.83;53.15
9129;BME280;4599;50.906;6.786;2023-04-24T17:12:09;17425.16;;;-142.83;53.54
9129;BME280;4599;50.906;6.786;2023-04-24T17:16:10;17388.34;;;-142.83;54.54
9129;BME280;4599;50.906;6.786;2023-04-24T17:20:13;17402.66;;;-142.83;54.57
9129;BME280;4599;50.906;6.786;2023-04-24T17:24:23;17388.34;;;-142.83;54.37
9129;BME280;4599;50.906;6.786;2023-04-24T17:28:26;17386.28;;;-142.83;54.45
9129;BME280;4599;50.906;6.786;2023-04-24T17:32:28;17396.53;;;-142.83;56.41
9129;BME280;4599;50.906;6.786;2023-04-24T17:36:31;17374.03;;;-142.83;nan
9129;BME280;4599;50.906;6.786;2023-04-24T17:40:32;17371.97;;;-142.83;55.49
9129;BME280;4599;50.906;6.786;2023-04-24T17:44:34;17369.94;;;-142.83;57.86
9129;BME280;4599;50.906;6.786;2023-04-24T17:48:35;17347.44;;;-142.83;57.86
9129;BME280;4599;50.906;6.786;2023-04-24T17:52:38;17326.97;;;-142.83;57.84
9129;BME280;4599;50.906;6.786;2023-04-24T17:56:40;17345.38;;;-142.83;56.62
9129;BME280;4599;50.906;6.786;2023-04-24T18:00:41;17337.19;;;-142.83;57.76
9129;BME280;4599;50.906;6.786;2023-04-24T18:04:43;17345.38;;;-142.83;57.51
9129;BME280;4599;50.906;6.786;2023-04-24T18:08:46;17322.88;;;-142.83;57.30
9129;BME280;4599;50.906;6.786;2023-04-24T18:12:48;17329.03;;;-142.83;58.28
9129;BME280;4599;50.906;6.786;2023-04-24T18:16:49;17294.25;;;-142.83;59.24
9129;BME280;4599;50.906;6.786;2023-04-24T18:20:51;17273.78;;;-142.83;59.72
9129;BME280;4599;50.906;6.786;2023-04-24T18:24:54;17249.25;;;-142.83;60.75
9129;BME280;4599;50.906;6.786;2023-04-24T18:28:55;17236.97;;;-142.83;60.31
9129;BME280;4599;50.906;6.786;2023-04-24T18:32:57;17212.44;;;-142.83;60.83
9129;BME280;4599;50.906;6.786;2023-04-24T18:36:58;17251.28;;;-142.83;61.31
9129;BME280;4599;50.906;6.786;2023-04-24T18:41:01;17210.38;;;-142.83;62.35
9129;BME280;4599;50.906;6.786;2023-04-24T18:45:03;17181.75;;;-142.83;61.99
9129;BME280;4599;50.906;6.786;2023-04-24T18:49:05;17177.66;;;-142.83;62.97
9129;BME280;4599;50.906;6.786;2023-04-24T18:53:07;17200.16;;;-142.83;62.75
9129;BME280;4599;50.906;6.786;2023-04-24T18:57:10;17187.88;;;-142.83;61.78
9129;BME280;4599;50.906;6.786;2023-04-24T19:01:11;17185.84;;;-142.83;63.77
9129;BME280;4599;50.906;6.786;2023-04-24T19:05:13;17175.63;;;-142.83;63.01
9129;BME280;4599;50.906;6.786;2023-04-24T19:09:15;17200.16;;;-142.83;62.93
9129;BME280;4599;50.906;6.786;2023-04-24T19:13:17;17185.84;;;-142.83;63.54
9129;BME280;4599;50.906;6.786;2023-04-24T19:17:19;17196.06;;;-142.83;62.67
9129;BME280;4599;50.906;6.786;2023-04-24T19:21:20;17196.06;;;-142.83;62.89
9129;BME280;4599;50.906;6.786;2023-04-24T19:25:22;17208.34;;;-142.83;63.01
9129;BME280;4599;50.906;6.786;2023-04-24T19:29:25;17212.44;;;-142.83;64.42
9129;BME280;4599;50.906;6.786;2023-04-24T19:33:27;17165.38;;;-142.83;65.75
9129;BME280;4599;50.906;6.786;2023-04-24T19:37:28;17149.03;;;-142.83;62.74
9129;BME280;4599;50.906;6.786;2023-04-24T19:41:30;17200.16;;;-142.83;62.22
9129;BME280;4599;50.906;6.786;2023-04-24T19:45:32;17200.16;;;-142.83;62.11
9129;BME280;4599;50.906;6.786;2023-04-24T19:49:34;17202.22;;;-142.83;62.62
9129;BME280;4599;50.906;6.786;2023-04-24T19:53:35;17200.16;;;-142.83;62.20
9129;BME280;4599;50.906;6.786;2023-04-24T19:57:37;17163.34;;;-142.83;63.16
9129;BME280;4599;50.906;6.786;2023-04-24T20:01:40;17194.03;;;-142.83;63.46
9129;BME280;4599;50.906;6.786;2023-04-24T20:05:42;17185.84;;;-142.83;62.96
9129;BME280;4599;50.906;6.786;2023-04-24T20:09:43;17216.53;;;-142.83;64.79
9129;BME280;4599;50.906;6.786;2023-04-24T20:13:45;17169.47;;;-142.83;64.97
9129;BME280;4599;50.906;6.786;2023-04-24T20:17:48;17187.88;;;-142.83;64.01
9129;BME280;4599;50.906;6.786;2023-04-24T20:21:49;17177.66;;;-142.83;64.26
9129;BME280;4599;50.906;6.786;2023-04-24T20:25:51;17161.31;;;-142.83;64.02
9129;BME280;4599;50.906;6.786;2023-04-24T20:29:52;17187.88;;;-142.83;63.70
9129;BME280;4599;50.906;6.786;2023-04-24T20:33:55;17130.63;;;-142.83;65.68
9129;BME280;4599;50.906;6.786;2023-04-24T20:37:57;17130.63;;;-142.83;66.27
9129;BME280;4599;50.906;6.786;2023-04-24T20:41:58;17126.53;;;-142.83;65.82
9129;BME280;4599;50.906;6.786;2023-04-24T20:46:00;17134.72;;;-142.83;66.75
9129;BME280;4599;50.906;6.786;2023-04-24T20:50:05;17106.06;;;-142.83;67.50
9129;BME280;4599;50.906;6.786;2023-04-24T20:54:06;17085.63;;;-142.83;68.55
9129;BME280;4599;50.906;6.786;2023-04-24T20:58:08;17097.91;;;-142.83;67.76
9129;BME280;4599;50.906;6.786;2023-04-24T21:02:11;17102.00;;;-142.83;68.49
9129;BME280;4599;50.906;6.786;2023-04-24T21:06:14;17110.16;;;-142.83;68.27
9129;BME280;4599;50.906;6.786;2023-04-24T21:10:16;17095.84;;;-142.83;68.92
9129;BME280;4599;50.906;6.786;2023-04-24T21:14:17;17077.44;;;-142.83;68.48
9129;BME280;4599;50.906;6.786;2023-04-24T21:18:19;17081.53;;;-142.83;68.67
9129;BME280;4599;50.906;6.786;2023-04-24T21:22:22;17093.81;;;-142.83;69.99